Time;durP1;ratioP1;P1;durP2;ratioP2;P2;SDS_P1;SDS_P2;PMS_P1;PMS_P2;Temp;Humidity;BMP_temperature;BMP_pressure;BME280_temperature;BME280_humidity;BME280_pressure;Samples;Min_cycle;Max_cycle;Signal;HPM_P1;HPM_P2
2021/04/07 00:01:39;;;;;;;5.07;4.18;;;2.50;1.00;;;;;;5088530;28;20251;-80
2021/04/07 00:04:20;;;;;;;5.72;4.00;;;2.50;1.00;;;;;;5100471;28;20231;-80
2021/04/07 00:06:49;;;;;;;8.55;4.20;;;2.50;1.00;;;;;;5097720;28;20292;-80
2021/04/07 00:09:16;;;;;;;3.83;3.20;;;2.50;1.00;;;;;;5114569;28;21012;-80
2021/04/07 00:11:45;;;;;;;5.47;3.15;;;2.50;1.00;;;;;;5084565;27;20237;-82
2021/04/07 00:14:11;;;;;;;4.75;3.67;;;2.40;1.00;;;;;;5095125;28;20216;-82
2021/04/07 00:16:38;;;;;;;6.05;3.63;;;2.40;1.00;;;;;;5092202;27;20235;-81
2021/04/07 00:19:06;;;;;;;4.03;3.63;;;2.40;1.00;;;;;;5084257;28;20235;-80
2021/04/07 00:21:33;;;;;;;5.15;3.25;;;2.40;1.00;;;;;;5087353;28;20225;-81
2021/04/07 00:24:00;;;;;;;6.57;3.58;;;2.40;1.00;;;;;;5099625;28;20246;-80
2021/04/07 00:26:26;;;;;;;8.90;3.38;;;2.40;1.00;;;;;;5088934;27;20208;-79
2021/04/07 00:29:13;;;;;;;5.80;3.40;;;2.50;1.00;;;;;;5075263;28;20266;-81
2021/04/07 00:31:39;;;;;;;7.40;2.97;;;2.50;1.00;;;;;;5065186;28;20219;-80
2021/04/07 00:34:10;;;;;;;12.85;3.42;;;2.50;1.00;;;;;;5100421;28;20426;-81
2021/04/07 00:36:38;;;;;;;3.70;2.80;;;2.50;1.00;;;;;;5095868;28;20670;-81
2021/04/07 00:39:10;;;;;;;7.30;3.22;;;2.40;1.00;;;;;;5107415;28;20225;-81
2021/04/07 00:41:37;;;;;;;7.18;3.25;;;2.40;1.00;;;;;;5081194;28;23120;-80
2021/04/07 00:44:04;;;;;;;6.57;3.22;;;2.40;1.00;;;;;;5090866;28;21130;-81
2021/04/07 00:46:37;;;;;;;4.35;3.00;;;2.40;1.00;;;;;;5105770;28;20211;-81
2021/04/07 00:49:04;;;;;;;6.50;3.20;;;2.40;1.00;;;;;;5103191;28;21083;-80
2021/04/07 00:51:30;;;;;;;5.30;3.13;;;2.40;1.00;;;;;;5093304;28;21028;-79
2021/04/07 00:53:58;;;;;;;4.05;3.20;;;2.40;1.00;;;;;;5056697;28;20277;-81
2021/04/07 00:56:25;;;;;;;6.88;4.00;;;2.40;1.00;;;;;;5071829;28;22937;-79
2021/04/07 00:58:54;;;;;;;6.53;3.90;;;2.40;1.00;;;;;;5059721;28;20305;-82
2021/04/07 01:01:24;;;;;;;5.45;3.90;;;2.30;1.00;;;;;;5068291;28;21008;-80
2021/04/07 01:03:50;;;;;;;6.13;3.20;;;2.30;1.00;;;;;;5070813;28;20242;-81
2021/04/07 01:06:19;;;;;;;10.13;4.50;;;2.40;1.00;;;;;;5088431;27;20251;-79
2021/04/07 01:08:46;;;;;;;6.32;3.95;;;2.40;1.00;;;;;;5074165;28;20220;-79
2021/04/07 01:11:13;;;;;;;4.55;3.70;;;2.30;1.00;;;;;;5075049;28;20224;-80
2021/04/07 01:13:40;;;;;;;6.80;3.58;;;2.30;1.00;;;;;;5091245;28;20227;-81
2021/04/07 01:16:12;;;;;;;5.70;3.05;;;2.30;1.00;;;;;;5103247;28;20283;-81
2021/04/07 01:18:41;;;;;;;14.98;3.17;;;2.30;1.00;;;;;;5080945;28;20219;-81
2021/04/07 01:21:08;;;;;;;4.35;2.90;;;2.40;1.00;;;;;;5087735;28;20725;-78
2021/04/07 01:23:36;;;;;;;3.75;2.90;;;2.40;1.00;;;;;;5060616;28;20227;-81
2021/04/07 01:26:03;;;;;;;8.15;3.60;;;2.40;1.00;;;;;;5095652;28;20367;-79
2021/04/07 01:28:30;;;;;;;7.65;3.13;;;2.40;1.00;;;;;;5085174;27;20219;-81
2021/04/07 01:30:59;;;;;;;6.32;3.40;;;2.40;1.00;;;;;;5082084;28;20275;-78
2021/04/07 01:33:26;;;;;;;5.28;3.08;;;2.40;1.00;;;;;;5071660;28;20844;-79
2021/04/07 01:35:52;;;;;;;4.90;2.50;;;2.40;1.00;;;;;;5087230;27;20219;-80
2021/04/07 01:38:19;;;;;;;9.57;3.78;;;2.40;1.00;;;;;;5085524;28;20232;-81
2021/04/07 01:40:46;;;;;;;6.30;3.80;;;2.40;1.00;;;;;;5054013;28;20221;-81
2021/04/07 01:43:17;;;;;;;12.57;3.42;;;2.50;1.00;;;;;;5089883;28;21448;-79
2021/04/07 01:45:46;;;;;;;4.63;3.20;;;2.40;1.00;;;;;;5072332;28;20223;-81
2021/04/07 01:48:13;;;;;;;6.00;3.60;;;2.40;1.00;;;;;;5091215;28;22160;-81
2021/04/07 01:50:50;;;;;;;6.53;2.90;;;2.40;1.00;;;;;;5065191;28;20239;-80
2021/04/07 01:53:20;;;;;;;4.10;3.25;;;2.40;1.00;;;;;;5093047;27;20227;-79
2021/04/07 01:55:47;;;;;;;7.25;3.55;;;2.40;1.00;;;;;;5087302;28;20199;-81
2021/04/07 01:58:14;;;;;;;3.75;2.95;;;2.40;1.00;;;;;;5083408;27;20335;-80
2021/04/07 02:00:41;;;;;;;4.07;2.95;;;2.40;1.00;;;;;;5057140;28;20272;-82
2021/04/07 02:03:18;;;;;;;6.00;3.58;;;2.40;1.00;;;;;;5086720;28;20231;-80
2021/04/07 02:05:44;;;;;;;6.63;3.00;;;2.40;1.00;;;;;;5076743;27;20220;-80
2021/04/07 02:08:13;;;;;;;5.68;3.63;;;2.40;1.00;;;;;;5087638;28;20626;-80
2021/04/07 02:10:43;;;;;;;5.25;4.28;;;2.30;1.00;;;;;;5077230;28;20224;-79
2021/04/07 02:13:14;;;;;;;4.85;2.65;;;2.30;1.00;;;;;;5086206;28;20423;-81
2021/04/07 02:15:40;;;;;;;4.10;2.78;;;2.30;1.00;;;;;;5074261;28;20285;-79
2021/04/07 02:18:06;;;;;;;5.18;3.10;;;2.20;1.00;;;;;;5088200;28;20226;-79
2021/04/07 02:20:32;;;;;;;4.60;2.72;;;2.30;1.00;;;;;;5089884;27;20316;-80
2021/04/07 02:23:04;;;;;;;3.63;2.95;;;2.30;1.00;;;;;;5091360;28;20232;-79
2021/04/07 02:25:33;;;;;;;5.82;2.70;;;2.30;1.00;;;;;;5079120;28;20219;-80
2021/04/07 02:27:59;;;;;;;5.75;2.50;;;2.20;1.00;;;;;;5094918;28;20220;-79
2021/04/07 02:30:31;;;;;;;5.25;3.50;;;2.30;1.00;;;;;;5090889;28;20230;-78
2021/04/07 02:32:57;;;;;;;4.10;3.17;;;2.30;1.00;;;;;;5070095;28;20238;-79
2021/04/07 02:35:24;;;;;;;5.15;2.53;;;2.30;1.00;;;;;;5073402;28;20937;-79
2021/04/07 02:37:50;;;;;;;4.85;3.17;;;2.30;1.00;;;;;;5073486;28;20315;-78
2021/04/07 02:40:17;;;;;;;6.25;3.15;;;2.30;1.00;;;;;;5077397;28;20281;-79
2021/04/07 02:42:43;;;;;;;5.90;3.58;;;2.30;1.00;;;;;;5071089;28;20303;-79
2021/04/07 02:45:10;;;;;;;8.30;3.53;;;2.30;1.00;;;;;;5089310;28;20216;-79
2021/04/07 02:47:37;;;;;;;9.48;3.42;;;2.40;1.00;;;;;;5075421;27;20220;-78
2021/04/07 02:50:04;;;;;;;4.35;3.28;;;2.40;1.00;;;;;;5089545;28;20243;-80
2021/04/07 02:52:30;;;;;;;4.88;2.95;;;2.40;1.00;;;;;;5076466;28;20322;-78
2021/04/07 02:54:57;;;;;;;4.28;2.85;;;2.50;1.00;;;;;;5091312;28;20373;-80
2021/04/07 02:57:23;;;;;;;6.75;3.88;;;2.40;1.00;;;;;;5076169;27;20219;-79
2021/04/07 02:59:49;;;;;;;6.38;3.65;;;2.40;1.00;;;;;;5094805;28;20227;-78
2021/04/07 03:02:18;;;;;;;5.13;3.10;;;2.40;1.00;;;;;;5079882;28;20219;-79
2021/04/07 03:04:45;;;;;;;5.53;2.90;;;2.30;1.00;;;;;;5099111;27;20246;-80
2021/04/07 03:07:11;;;;;;;6.85;3.60;;;2.30;1.00;;;;;;5082254;28;20239;-78
2021/04/07 03:09:38;;;;;;;7.00;3.70;;;2.30;1.00;;;;;;5100060;28;21121;-78
2021/04/07 03:12:06;;;;;;;6.50;3.25;;;2.30;1.00;;;;;;5099228;28;20282;-78
2021/04/07 03:14:32;;;;;;;6.88;4.65;;;2.20;1.00;;;;;;5090778;27;20216;-80
2021/04/07 03:16:59;;;;;;;6.07;3.72;;;2.20;1.00;;;;;;5100521;28;23777;-80
2021/04/07 03:19:25;;;;;;;9.68;3.97;;;2.20;1.00;;;;;;5089156;28;20288;-80
2021/04/07 03:21:52;;;;;;;5.60;4.20;;;2.20;1.00;;;;;;5103221;27;20250;-79
2021/04/07 03:24:21;;;;;;;5.22;3.50;;;2.30;1.00;;;;;;5088782;28;20865;-78
2021/04/07 03:26:50;;;;;;;7.50;3.50;;;2.30;1.00;;;;;;5107906;28;20246;-81
2021/04/07 03:29:17;;;;;;;9.32;3.47;;;2.30;1.00;;;;;;5098607;28;20301;-80
2021/04/07 03:31:44;;;;;;;7.60;3.53;;;2.30;1.00;;;;;;5108481;28;20220;-80
2021/04/07 03:34:15;;;;;;;8.88;3.45;;;2.30;1.00;;;;;;5094857;28;21042;-79
2021/04/07 03:36:41;;;;;;;8.27;3.78;;;2.30;1.00;;;;;;5107467;28;20244;-79
2021/04/07 03:39:08;;;;;;;5.35;3.50;;;2.30;1.00;;;;;;5093295;28;20230;-79
2021/04/07 03:41:35;;;;;;;10.02;5.20;;;2.30;1.00;;;;;;5107946;28;20216;-79
2021/04/07 03:44:01;;;;;;;8.00;4.40;;;2.30;1.00;;;;;;5091975;28;20289;-80
2021/04/07 03:46:30;;;;;;;7.55;4.70;;;2.40;1.00;;;;;;5085238;28;20674;-79
2021/04/07 03:48:56;;;;;;;7.75;4.80;;;2.40;1.00;;;;;;5073275;28;20228;-79
2021/04/07 03:51:23;;;;;;;7.32;3.80;;;2.40;1.00;;;;;;5106009;28;20787;-80
2021/04/07 03:53:51;;;;;;;7.70;4.13;;;2.40;1.00;;;;;;5095110;28;20232;-81
2021/04/07 03:56:31;;;;;;;6.97;3.70;;;2.40;1.00;;;;;;5089768;28;20227;-79
2021/04/07 03:58:58;;;;;;;4.55;4.13;;;2.40;1.00;;;;;;5097965;28;20215;-80
2021/04/07 04:01:24;;;;;;;5.40;3.55;;;2.50;1.00;;;;;;5090007;27;20232;-81
2021/04/07 04:03:53;;;;;;;11.63;4.28;;;2.40;1.00;;;;;;5098687;28;20302;-79
2021/04/07 04:06:19;;;;;;;9.80;4.13;;;2.40;1.00;;;;;;5086463;28;20240;-81
2021/04/07 04:08:46;;;;;;;8.73;4.20;;;2.40;1.00;;;;;;5097423;28;20288;-77
2021/04/07 04:11:15;;;;;;;5.50;3.97;;;2.40;1.00;;;;;;5089997;28;20231;-76
2021/04/07 04:13:42;;;;;;;13.95;4.30;;;2.40;1.00;;;;;;5099121;28;20223;-76
2021/04/07 04:16:11;;;;;;;6.72;4.70;;;2.40;1.00;;;;;;5086272;28;20259;-77
2021/04/07 04:18:41;;;;;;;7.22;4.45;;;2.50;1.00;;;;;;5097366;28;21008;-78
2021/04/07 04:21:08;;;;;;;9.90;6.55;;;2.50;1.00;;;;;;5082608;27;20227;-77
2021/04/07 04:23:35;;;;;;;6.53;5.10;;;2.40;1.00;;;;;;5097615;28;20620;-77
2021/04/07 04:26:02;;;;;;;9.30;5.47;;;2.40;1.00;;;;;;5084561;28;20270;-78
2021/04/07 04:28:28;;;;;;;10.73;5.32;;;2.40;1.00;;;;;;5097843;28;20227;-79
2021/04/07 04:30:59;;;;;;;8.90;5.63;;;2.40;1.00;;;;;;5075539;28;20215;-79
2021/04/07 04:33:33;;;;;;;42.88;21.70;;;2.40;1.00;;;;;;5085626;28;20228;-79
2021/04/07 04:35:59;;;;;;;9.75;5.90;;;2.40;1.00;;;;;;5074489;28;20615;-78
2021/04/07 04:38:32;;;;;;;11.20;6.45;;;2.50;1.00;;;;;;5101992;28;20401;-79
2021/04/07 04:40:58;;;;;;;11.85;6.15;;;2.40;1.00;;;;;;5089993;28;23278;-81
2021/04/07 04:43:25;;;;;;;7.93;5.45;;;2.40;1.00;;;;;;5103170;28;20290;-80
2021/04/07 04:45:51;;;;;;;11.95;5.97;;;2.50;1.00;;;;;;5094554;28;20227;-80
2021/04/07 04:48:19;;;;;;;7.22;4.35;;;2.50;1.00;;;;;;5100939;28;20224;-79
2021/04/07 04:50:45;;;;;;;7.75;5.03;;;2.50;1.00;;;;;;5102530;27;20220;-81
2021/04/07 04:53:12;;;;;;;9.90;5.50;;;2.50;1.00;;;;;;5091087;28;20223;-82
2021/04/07 04:55:38;;;;;;;8.02;6.07;;;2.50;1.00;;;;;;5105330;28;20227;-80
2021/04/07 04:58:04;;;;;;;8.38;4.88;;;2.50;1.00;;;;;;5071869;28;21253;-79
2021/04/07 05:00:35;;;;;;;8.32;5.60;;;2.50;1.00;;;;;;5103614;28;20216;-80
2021/04/07 05:03:01;;;;;;;11.43;5.90;;;2.50;1.00;;;;;;5091405;28;20733;-80
2021/04/07 05:05:37;;;;;;;8.68;5.75;;;2.50;1.00;;;;;;5090659;28;20223;-80
2021/04/07 05:08:04;;;;;;;6.75;5.13;;;2.60;1.00;;;;;;5077108;28;20728;-79
2021/04/07 05:10:31;;;;;;;7.10;5.25;;;2.50;1.00;;;;;;5090042;28;20228;-79
2021/04/07 05:13:00;;;;;;;13.63;7.40;;;2.50;1.00;;;;;;5072000;28;20259;-80
2021/04/07 05:15:26;;;;;;;18.58;6.15;;;2.60;1.00;;;;;;5104371;28;20224;-81
2021/04/07 05:17:53;;;;;;;10.77;4.30;;;2.60;1.00;;;;;;5105958;28;20212;-80
2021/04/07 05:20:19;;;;;;;9.02;4.80;;;2.60;1.00;;;;;;5118824;28;20208;-79
2021/04/07 05:22:48;;;;;;;7.05;5.95;;;2.60;1.00;;;;;;5091326;28;20265;-80
2021/04/07 05:25:14;;;;;;;9.27;5.65;;;2.60;1.00;;;;;;5118053;28;20220;-79
2021/04/07 05:27:42;;;;;;;7.72;5.38;;;2.60;1.00;;;;;;5105921;28;20249;-81
2021/04/07 05:30:10;;;;;;;14.27;6.25;;;2.60;1.00;;;;;;5118364;28;20238;-81
2021/04/07 05:32:42;;;;;;;14.48;6.45;;;2.50;1.00;;;;;;5101000;27;20762;-80
2021/04/07 05:35:14;;;;;;;10.95;5.53;;;2.50;1.00;;;;;;5104286;28;20224;-79
2021/04/07 05:37:41;;;;;;;8.10;4.47;;;2.60;1.00;;;;;;5108476;28;20262;-80
2021/04/07 05:40:15;;;;;;;10.07;4.53;;;2.60;1.00;;;;;;5106370;28;20223;-79
2021/04/07 05:42:49;;;;;;;9.52;6.05;;;2.60;1.00;;;;;;5098019;28;20238;-81
2021/04/07 05:45:16;;;;;;;8.43;5.38;;;2.60;1.00;;;;;;5094495;28;20273;-79
2021/04/07 05:47:42;;;;;;;10.20;5.78;;;2.60;1.00;;;;;;5101236;28;20224;-79
2021/04/07 05:50:09;;;;;;;14.07;5.40;;;2.60;1.00;;;;;;5091865;27;20220;-80
2021/04/07 05:52:39;;;;;;;7.85;4.57;;;2.60;1.00;;;;;;5102918;28;20219;-79
2021/04/07 05:55:06;;;;;;;8.48;5.90;;;2.70;1.00;;;;;;5095276;28;20215;-79
2021/04/07 05:57:34;;;;;;;12.52;6.05;;;2.70;1.00;;;;;;5093709;28;20265;-79
2021/04/07 06:00:00;;;;;;;13.77;8.27;;;2.70;1.00;;;;;;5096602;27;20303;-81
2021/04/07 06:02:26;;;;;;;8.98;5.65;;;2.80;1.00;;;;;;5105081;28;20224;-81
2021/04/07 06:04:53;;;;;;;9.75;4.72;;;2.80;1.00;;;;;;5089424;28;20238;-79
2021/04/07 06:07:21;;;;;;;6.30;4.45;;;2.90;1.00;;;;;;5102607;28;20223;-79
2021/04/07 06:09:48;;;;;;;10.60;4.75;;;2.90;1.00;;;;;;5086461;27;20219;-81
2021/04/07 06:12:14;;;;;;;11.40;5.25;;;2.90;1.00;;;;;;5102030;28;20219;-80
2021/04/07 06:14:47;;;;;;;9.75;5.07;;;2.90;1.00;;;;;;5077083;28;21419;-78
2021/04/07 06:17:14;;;;;;;8.45;5.35;;;2.90;1.00;;;;;;5082843;28;20291;-81
2021/04/07 06:19:40;;;;;;;8.93;5.05;;;3.10;1.00;;;;;;5088880;28;21739;-80
2021/04/07 06:22:10;;;;;;;12.05;4.95;;;3.20;1.00;;;;;;5100044;28;20220;-80
2021/04/07 06:24:37;;;;;;;9.05;4.97;;;3.30;1.00;;;;;;5092871;28;20235;-80
2021/04/07 06:27:03;;;;;;;6.78;4.43;;;3.20;1.00;;;;;;5096629;28;20242;-80
2021/04/07 06:29:29;;;;;;;7.95;6.07;;;3.20;1.00;;;;;;5100904;27;20315;-79
2021/04/07 06:31:56;;;;;;;11.82;6.40;;;3.20;1.00;;;;;;5090009;28;20674;-81
2021/04/07 06:34:22;;;;;;;7.60;5.97;;;3.20;1.00;;;;;;5082084;28;20230;-81
2021/04/07 06:36:49;;;;;;;12.60;6.22;;;3.20;1.00;;;;;;5074970;28;20377;-79
2021/04/07 06:39:17;;;;;;;8.93;5.20;;;3.20;1.00;;;;;;5104068;28;20216;-79
2021/04/07 06:41:44;;;;;;;13.95;5.28;;;3.30;1.00;;;;;;5089467;28;20228;-80
2021/04/07 06:44:13;;;;;;;7.78;3.97;;;3.30;1.00;;;;;;5086158;28;20240;-82
2021/04/07 06:46:46;;;;;;;8.88;4.53;;;3.30;1.00;;;;;;5096521;28;20216;-81
2021/04/07 06:49:21;;;;;;;13.52;5.05;;;3.40;1.00;;;;;;5105616;28;20228;-81
2021/04/07 06:51:50;;;;;;;8.45;5.45;;;3.40;1.00;;;;;;5096465;28;20227;-80
2021/04/07 06:54:22;;;;;;;11.23;4.35;;;3.40;1.00;;;;;;5105367;28;20303;-80
2021/04/07 06:56:49;;;;;;;6.18;4.00;;;3.40;1.00;;;;;;5084143;28;20385;-80
2021/04/07 06:59:16;;;;;;;7.25;3.53;;;3.40;1.00;;;;;;5086559;28;20219;-79
2021/04/07 07:01:43;;;;;;;7.10;4.15;;;3.50;1.00;;;;;;5093913;28;20295;-81
2021/04/07 07:04:10;;;;;;;6.68;3.90;;;3.60;1.00;;;;;;5102852;28;20243;-77
2021/04/07 07:06:37;;;;;;;8.10;3.67;;;3.70;1.00;;;;;;5097316;28;20288;-77
2021/04/07 07:09:17;;;;;;;6.05;3.97;;;3.80;1.00;;;;;;5117094;28;20228;-76
2021/04/07 07:11:44;;;;;;;8.60;4.57;;;3.80;1.00;;;;;;5110034;27;24613;-74
2021/04/07 07:14:15;;;;;;;8.77;5.07;;;3.70;1.00;;;;;;5117050;28;20247;-76
2021/04/07 07:16:44;;;;;;;6.57;4.38;;;3.70;1.00;;;;;;5107917;27;20219;-76
2021/04/07 07:19:23;;;;;;;9.05;4.10;;;3.70;1.00;;;;;;5122434;28;20619;-74
2021/04/07 07:21:51;;;;;;;7.43;4.00;;;3.60;1.00;;;;;;5110081;28;20212;-76
2021/04/07 07:24:27;;;;;;;6.65;4.03;;;3.20;1.00;;;;;;5121159;27;20227;-75
2021/04/07 07:26:54;;;;;;;7.10;3.88;;;2.80;1.00;;;;;;5112058;27;20250;-77
2021/04/07 07:29:26;;;;;;;11.10;4.55;;;2.60;1.00;;;;;;5097867;28;20219;-77
2021/04/07 07:32:01;;;;;;;8.48;4.88;;;2.60;1.00;;;;;;5103664;28;20241;-78
2021/04/07 07:34:27;;;;;;;11.20;4.90;;;2.60;1.00;;;;;;5086847;27;20283;-77
2021/04/07 07:36:56;;;;;;;10.25;5.05;;;2.60;1.00;;;;;;5084240;27;20643;-75
2021/04/07 07:39:25;;;;;;;8.55;5.55;;;2.60;1.00;;;;;;5085962;27;20299;-78
2021/04/07 07:41:55;;;;;;;14.70;4.18;;;2.70;1.00;;;;;;5100235;27;20250;-77
2021/04/07 07:44:23;;;;;;;14.32;4.95;;;2.90;1.00;;;;;;5081642;27;20282;-75
2021/04/07 07:46:58;;;;;;;6.70;4.68;;;3.00;1.00;;;;;;5098006;27;20215;-77
2021/04/07 07:49:25;;;;;;;8.82;4.78;;;3.00;1.00;;;;;;5079247;27;21123;-75
2021/04/07 07:51:52;;;;;;;10.20;5.40;;;3.00;1.00;;;;;;5098472;27;20215;-76
2021/04/07 07:54:25;;;;;;;15.70;5.00;;;3.10;1.00;;;;;;5081910;27;20330;-77
2021/04/07 07:56:53;;;;;;;7.57;4.28;;;3.30;1.00;;;;;;5099672;27;20740;-78
2021/04/07 07:59:26;;;;;;;9.70;5.50;;;3.20;1.00;;;;;;5081135;27;20305;-77
2021/04/07 08:01:53;;;;;;;9.77;5.50;;;3.20;1.00;;;;;;5098723;27;20227;-77
2021/04/07 08:04:19;;;;;;;9.70;5.20;;;3.20;1.00;;;;;;5096578;27;20743;-81
2021/04/07 08:06:54;;;;;;;10.20;5.47;;;3.20;1.00;;;;;;5088645;27;20227;-79
2021/04/07 08:09:22;;;;;;;9.77;5.15;;;3.30;1.00;;;;;;5080002;27;20238;-80
2021/04/07 08:11:49;;;;;;;8.07;4.95;;;3.40;1.00;;;;;;5098186;27;20223;-81
2021/04/07 08:14:20;;;;;;;14.20;5.43;;;3.40;1.00;;;;;;5073330;27;20232;-79
2021/04/07 08:16:50;;;;;;;9.70;5.10;;;3.60;1.00;;;;;;5107880;27;20227;-80
2021/04/07 08:19:16;;;;;;;14.20;4.22;;;3.60;1.00;;;;;;5095843;27;21571;-77
2021/04/07 08:21:45;;;;;;;8.40;5.18;;;3.60;1.00;;;;;;5105283;27;20308;-79
2021/04/07 08:24:22;;;;;;;6.20;4.15;;;3.70;1.00;;;;;;5098485;27;20231;-80
2021/04/07 08:26:52;;;;;;;7.47;4.75;;;4.00;1.00;;;;;;5085781;27;20242;-79
2021/04/07 08:29:19;;;;;;;10.07;5.50;;;4.40;1.00;;;;;;5103912;27;20223;-79
2021/04/07 08:31:49;;;;;;;9.27;3.90;;;4.60;1.00;;;;;;5093769;27;20284;-79
2021/04/07 08:34:19;;;;;;;4.78;3.30;;;4.80;1.00;;;;;;5093867;27;20250;-80
2021/04/07 08:36:47;;;;;;;11.73;4.32;;;5.00;1.00;;;;;;5103520;27;21463;-79
2021/04/07 08:39:15;;;;;;;9.82;3.83;;;5.20;1.00;;;;;;5109880;27;20881;-78
2021/04/07 08:41:44;;;;;;;7.05;3.58;;;5.20;1.00;;;;;;5098581;27;20224;-79
2021/04/07 08:44:11;;;;;;;8.15;3.92;;;5.20;1.00;;;;;;5111208;27;20257;-79
2021/04/07 08:46:42;;;;;;;11.90;4.38;;;5.30;1.00;;;;;;5090805;27;20227;-80
2021/04/07 08:49:10;;;;;;;9.63;3.72;;;5.30;1.00;;;;;;5105878;27;20215;-79
2021/04/07 08:51:36;;;;;;;12.45;4.10;;;5.30;1.00;;;;;;5093019;28;20220;-78
2021/04/07 08:54:04;;;;;;;8.65;3.47;;;5.30;1.00;;;;;;5130247;27;21186;-80
2021/04/07 08:56:35;;;;;;;6.35;3.10;;;5.50;1.00;;;;;;5120144;27;20406;-80
2021/04/07 08:59:04;;;;;;;10.05;3.55;;;5.60;1.00;;;;;;5111029;27;20236;-78
2021/04/07 09:01:33;;;;;;;6.35;3.65;;;5.60;1.00;;;;;;5112052;27;20232;-79
2021/04/07 09:04:05;;;;;;;6.72;3.22;;;5.60;1.00;;;;;;5130002;27;20246;-79
2021/04/07 09:06:32;;;;;;;11.15;3.22;;;5.50;1.00;;;;;;5113251;27;20233;-79
2021/04/07 09:09:04;;;;;;;4.28;3.35;;;5.70;1.00;;;;;;5100715;27;20243;-80
2021/04/07 09:11:33;;;;;;;4.97;3.10;;;5.90;1.00;;;;;;5102722;27;20219;-79
2021/04/07 09:14:03;;;;;;;6.20;4.80;;;5.90;1.00;;;;;;5095886;27;20253;-79
2021/04/07 09:16:34;;;;;;;8.90;3.47;;;5.90;1.00;;;;;;5105240;27;20596;-80
2021/04/07 09:19:15;;;;;;;8.18;3.63;;;6.10;1.00;;;;;;5115689;27;20230;-78
2021/04/07 09:21:56;;;;;;;8.35;3.40;;;6.40;1.00;;;;;;5094037;27;22112;-78
2021/04/07 09:24:26;;;;;;;11.82;3.40;;;6.80;1.00;;;;;;5097365;28;20273;-78
2021/04/07 09:26:55;;;;;;;7.30;3.03;;;6.80;1.00;;;;;;5096785;28;22743;-78
2021/04/07 09:29:22;;;;;;;5.10;3.35;;;7.40;1.00;;;;;;5114386;28;20220;-78
2021/04/07 09:31:50;;;;;;;6.13;2.90;;;8.90;1.00;;;;;;5099395;27;20230;-78
2021/04/07 09:34:18;;;;;;;7.63;3.25;;;10.00;1.00;;;;;;5098156;27;20247;-78
2021/04/07 09:36:48;;;;;;;5.60;2.80;;;10.10;1.00;;;;;;5101183;28;20219;-77
2021/04/07 09:39:16;;;;;;;9.95;3.42;;;10.00;1.00;;;;;;5085227;28;20227;-77
2021/04/07 09:41:44;;;;;;;3.67;2.25;;;9.20;1.00;;;;;;5080478;28;20243;-78
2021/04/07 09:44:12;;;;;;;4.95;2.28;;;8.70;1.00;;;;;;5090058;28;20239;-80
2021/04/07 09:46:41;;;;;;;8.65;3.72;;;8.30;1.00;;;;;;5108596;28;20262;-79
2021/04/07 09:49:10;;;;;;;10.82;5.05;;;7.80;1.00;;;;;;5090990;28;20235;-80
2021/04/07 09:51:38;;;;;;;7.25;2.80;;;7.60;1.00;;;;;;5098000;28;20227;-78
2021/04/07 09:54:19;;;;;;;11.68;3.83;;;8.10;1.00;;;;;;5068537;28;23763;-79
2021/04/07 09:56:51;;;;;;;5.72;2.78;;;8.10;1.00;;;;;;5095903;28;20223;-79
2021/04/07 09:59:19;;;;;;;4.85;3.42;;;8.50;1.00;;;;;;5080147;28;20342;-81
2021/04/07 10:01:45;;;;;;;8.43;2.80;;;8.30;1.00;;;;;;5079037;28;20291;-83
2021/04/07 10:04:17;;;;;;;9.80;3.13;;;8.60;1.00;;;;;;5094479;28;20311;-81
2021/04/07 10:06:43;;;;;;;5.55;2.63;;;8.70;1.00;;;;;;5093354;28;20239;-82
2021/04/07 10:09:11;;;;;;;8.48;3.25;;;8.60;1.00;;;;;;5072379;28;20811;-81
2021/04/07 10:11:39;;;;;;;4.20;2.97;;;8.50;1.00;;;;;;5092591;28;20263;-79
2021/04/07 10:14:06;;;;;;;7.60;2.72;;;8.20;1.00;;;;;;5081929;27;20260;-80
2021/04/07 10:16:33;;;;;;;6.65;3.60;;;8.60;1.00;;;;;;5096893;28;20236;-77
2021/04/07 10:19:01;;;;;;;4.00;2.90;;;9.00;1.00;;;;;;5077092;28;22888;-76
2021/04/07 10:21:30;;;;;;;7.30;4.38;;;8.80;1.00;;;;;;5089182;28;20323;-75
2021/04/07 10:23:58;;;;;;;7.10;4.40;;;8.80;1.00;;;;;;5081973;28;20264;-77
2021/04/07 10:26:24;;;;;;;7.32;3.58;;;9.20;1.00;;;;;;5097418;28;20260;-77
2021/04/07 10:28:57;;;;;;;7.95;3.13;;;9.60;1.00;;;;;;5093364;28;20213;-76
2021/04/07 10:31:24;;;;;;;4.50;2.88;;;9.80;1.00;;;;;;5062653;28;20287;-76
2021/04/07 10:34:02;;;;;;;4.85;2.65;;;9.80;1.00;;;;;;5097983;28;20217;-75
2021/04/07 10:36:29;;;;;;;5.70;2.67;;;9.90;1.00;;;;;;5078748;27;20260;-74
2021/04/07 10:38:58;;;;;;;3.70;2.85;;;9.60;1.00;;;;;;5098607;28;20305;-75
2021/04/07 10:41:26;;;;;;;4.60;3.58;;;9.30;1.00;;;;;;5088806;27;21371;-75
2021/04/07 10:43:52;;;;;;;5.70;2.60;;;9.80;1.00;;;;;;5105316;27;20294;-76
2021/04/07 10:46:29;;;;;;;8.10;4.32;;;10.00;1.00;;;;;;5073303;28;20224;-76
2021/04/07 10:48:57;;;;;;;3.70;2.30;;;10.20;1.00;;;;;;5087681;28;20325;-75
2021/04/07 10:51:23;;;;;;;3.93;2.80;;;11.50;1.00;;;;;;5058016;28;20576;-76
2021/04/07 10:53:58;;;;;;;4.30;2.60;;;13.10;1.00;;;;;;5085980;27;20536;-75
2021/04/07 10:56:26;;;;;;;5.73;2.80;;;14.10;1.00;;;;;;5051424;28;20518;-73
2021/04/07 10:58:54;;;;;;;6.97;3.00;;;13.60;1.00;;;;;;5080859;27;20519;-77
2021/04/07 11:01:27;;;;;;;3.93;2.73;;;14.20;1.00;;;;;;5060591;28;20430;-76
2021/04/07 11:03:53;;;;;;;4.90;2.70;;;14.20;1.00;;;;;;5080420;28;20960;-77
2021/04/07 11:06:30;;;;;;;7.50;2.30;;;13.40;1.00;;;;;;5072470;27;20469;-75
2021/04/07 11:09:00;;;;;;;3.70;2.20;;;13.20;1.00;;;;;;5083764;27;20465;-76
2021/04/07 11:11:28;;;;;;;4.17;2.63;;;12.30;1.00;;;;;;5072558;28;20469;-72
2021/04/07 11:13:55;;;;;;;6.60;2.92;;;11.00;1.00;;;;;;5084417;28;20451;-74
2021/04/07 11:16:30;;;;;;;6.90;2.42;;;10.10;1.00;;;;;;5054704;28;20336;-73
2021/04/07 11:18:56;;;;;;;3.90;2.65;;;9.40;1.00;;;;;;5095729;27;20215;-74
2021/04/07 11:21:26;;;;;;;2.92;2.60;;;9.10;1.00;;;;;;5071807;28;20283;-74
2021/04/07 11:23:52;;;;;;;5.63;2.75;;;9.00;1.00;;;;;;5092070;27;20322;-73
2021/04/07 11:26:23;;;;;;;4.70;2.90;;;9.00;1.00;;;;;;5079843;28;20223;-72
2021/04/07 11:28:49;;;;;;;5.18;2.50;;;8.70;1.00;;;;;;5085630;27;20242;-74
2021/04/07 11:31:21;;;;;;;3.40;2.63;;;8.20;1.00;;;;;;5091680;28;20219;-74
2021/04/07 11:33:50;;;;;;;4.38;2.55;;;8.00;1.00;;;;;;5080580;28;20239;-74
2021/04/07 11:36:30;;;;;;;3.65;2.75;;;7.80;1.00;;;;;;5088499;28;20216;-73
2021/04/07 11:39:08;;;;;;;5.90;3.50;;;7.50;1.00;;;;;;5062521;28;20220;-74
2021/04/07 11:41:53;;;;;;;7.65;2.95;;;7.30;1.00;;;;;;5086875;28;20341;-73
2021/04/07 11:44:28;;;;;;;8.15;3.08;;;7.20;1.00;;;;;;5060521;28;20231;-75
2021/04/07 11:46:55;;;;;;;9.02;4.18;;;7.40;1.00;;;;;;5088067;28;20234;-74
2021/04/07 11:49:22;;;;;;;4.53;2.30;;;7.70;1.00;;;;;;5078856;28;20235;-75
2021/04/07 11:51:49;;;;;;;3.97;2.35;;;7.80;1.00;;;;;;5085048;28;20990;-74
2021/04/07 11:54:16;;;;;;;3.47;2.42;;;7.90;1.00;;;;;;5077126;28;20231;-74
2021/04/07 11:56:45;;;;;;;5.05;2.28;;;8.20;1.00;;;;;;5074929;28;20679;-75
2021/04/07 11:59:13;;;;;;;4.30;1.92;;;8.50;1.00;;;;;;5075454;27;20360;-73
2021/04/07 12:01:39;;;;;;;7.97;5.95;;;8.30;1.00;;;;;;5089213;27;23041;-74
2021/04/07 12:04:06;;;;;;;3.50;2.03;;;7.90;1.00;;;;;;5078286;28;20223;-74
2021/04/07 12:06:33;;;;;;;3.00;2.70;;;8.00;1.00;;;;;;5088743;28;20226;-74
2021/04/07 12:08:59;;;;;;;7.65;2.30;;;8.00;1.00;;;;;;5077000;28;21056;-73
2021/04/07 12:11:26;;;;;;;3.35;2.20;;;7.90;1.00;;;;;;5086643;28;20220;-74
2021/04/07 12:13:54;;;;;;;6.13;2.47;;;7.60;1.00;;;;;;5077560;28;20307;-75
2021/04/07 12:16:20;;;;;;;3.80;2.20;;;7.40;1.00;;;;;;5090141;28;20223;-75
2021/04/07 12:18:47;;;;;;;4.18;2.50;;;7.30;1.00;;;;;;5077384;28;20254;-72
2021/04/07 12:21:14;;;;;;;4.10;1.90;;;7.50;1.00;;;;;;5096094;28;20224;-74
2021/04/07 12:23:40;;;;;;;4.97;1.75;;;8.10;1.00;;;;;;5077253;28;20227;-75
2021/04/07 12:26:06;;;;;;;2.75;1.58;;;8.50;1.00;;;;;;5081989;27;20231;-74
2021/04/07 12:28:34;;;;;;;3.55;1.60;;;8.90;1.00;;;;;;5100646;28;20231;-78
2021/04/07 12:31:01;;;;;;;3.75;1.95;;;9.20;1.00;;;;;;5087508;28;20338;-76
2021/04/07 12:33:29;;;;;;;5.38;2.50;;;9.20;1.00;;;;;;5093160;28;20253;-79
2021/04/07 12:35:56;;;;;;;1.55;1.45;;;9.20;1.00;;;;;;5086015;28;20761;-79
2021/04/07 12:38:25;;;;;;;3.00;1.92;;;8.90;1.00;;;;;;5092883;27;20812;-77
2021/04/07 12:40:54;;;;;;;4.10;2.08;;;8.40;1.00;;;;;;5071299;28;20285;-79
2021/04/07 12:43:20;;;;;;;3.20;1.85;;;7.90;1.00;;;;;;5093142;28;20227;-77
2021/04/07 12:45:46;;;;;;;3.08;2.00;;;7.60;1.00;;;;;;5086694;28;20228;-76
2021/04/07 12:48:14;;;;;;;3.05;2.22;;;7.40;1.00;;;;;;5097644;28;21233;-78
2021/04/07 12:50:41;;;;;;;2.65;1.63;;;7.40;1.00;;;;;;5080382;28;20323;-77
2021/04/07 12:53:08;;;;;;;3.80;2.40;;;7.50;1.00;;;;;;5079496;28;20230;-78
2021/04/07 12:55:35;;;;;;;4.80;2.20;;;7.50;1.00;;;;;;5064464;28;21132;-78
2021/04/07 12:58:02;;;;;;;2.97;1.88;;;7.50;1.00;;;;;;5094444;27;20235;-76
2021/04/07 13:00:30;;;;;;;7.03;1.65;;;7.60;1.00;;;;;;5077525;28;20228;-76
2021/04/07 13:02:58;;;;;;;4.60;2.55;;;7.80;1.00;;;;;;5093259;28;20251;-75
2021/04/07 13:05:25;;;;;;;2.97;1.95;;;7.80;1.00;;;;;;5082012;28;20231;-76
2021/04/07 13:07:52;;;;;;;3.22;1.70;;;8.00;1.00;;;;;;5095719;27;20281;-77
2021/04/07 13:10:20;;;;;;;3.00;1.67;;;8.00;1.00;;;;;;5077599;28;21156;-76
2021/04/07 13:12:50;;;;;;;4.68;1.90;;;8.20;1.00;;;;;;5076179;28;20338;-78